sensor_id;sensor_type;location;lat;lon;timestamp;temperature;humidity
12634;DHT22;6382;48.614;8.880;2023-06-22T06:06:02;21.30;99.90
12634;DHT22;6382;48.614;8.880;2023-06-22T06:08:29;21.30;99.90
12634;DHT22;6382;48.614;8.880;2023-06-22T06:10:56;21.30;99.90
12634;DHT22;6382;48.614;8.880;2023-06-22T08:10:42;25.50;99.90
12634;DHT22;6382;48.614;8.880;2023-06-22T08:13:09;25.70;99.90
12634;DHT22;6382;48.614;8.880;2023-06-22T08:15:36;25.90;99.90
12634;DHT22;6382;48.614;8.880;2023-06-22T08:18:03;26.00;99.90
12634;DHT22;6382;48.614;8.880;2023-06-22T08:20:29;26.20;99.90
12634;DHT22;6382;48.614;8.880;2023-06-22T08:22:56;26.40;99.90
12634;DHT22;6382;48.614;8.880;2023-06-22T08:25:24;26.30;99.90
12634;DHT22;6382;48.614;8.880;2023-06-22T08:27:51;26.30;99.90
12634;DHT22;6382;48.614;8.880;2023-06-22T08:30:18;26.30;99.90
12634;DHT22;6382;48.614;8.880;2023-06-22T08:32:45;26.30;99.90
12634;DHT22;6382;48.614;8.880;2023-06-22T08:35:12;26.30;99.90
12634;DHT22;6382;48.614;8.880;2023-06-22T08:37:38;26.30;99.90
12634;DHT22;6382;48.614;8.880;2023-06-22T08:40:07;26.40;99.90
12634;DHT22;6382;48.614;8.880;2023-06-22T08:42:36;26.50;99.90
12634;DHT22;6382;48.614;8.880;2023-06-22T08:45:03;26.70;99.90
12634;DHT22;6382;48.614;8.880;2023-06-22T08:47:29;26.70;99.90
12634;DHT22;6382;48.614;8.880;2023-06-22T08:49:56;26.80;99.90
12634;DHT22;6382;48.614;8.880;2023-06-22T08:52:23;26.80;99.90
12634;DHT22;6382;48.614;8.880;2023-06-22T08:54:50;26.90;99.90
12634;DHT22;6382;48.614;8.880;2023-06-22T08:57:17;26.70;99.90
12634;DHT22;6382;48.614;8.880;2023-06-22T08:59:43;26.80;99.90
12634;DHT22;6382;48.614;8.880;2023-06-22T09:02:10;26.70;99.90
12634;DHT22;6382;48.614;8.880;2023-06-22T09:04:37;26.90;99.90
12634;DHT22;6382;48.614;8.880;2023-06-22T09:07:04;27.00;99.90
12634;DHT22;6382;48.614;8.880;2023-06-22T09:09:31;27.20;99.90
12634;DHT22;6382;48.614;8.880;2023-06-22T09:11:58;27.30;99.90
12634;DHT22;6382;48.614;8.880;2023-06-22T09:14:24;27.40;99.90
12634;DHT22;6382;48.614;8.880;2023-06-22T09:16:51;27.40;99.90
12634;DHT22;6382;48.614;8.880;2023-06-22T09:19:18;27.20;99.90
12634;DHT22;6382;48.614;8.880;2023-06-22T09:21:44;27.40;99.90
12634;DHT22;6382;48.614;8.880;2023-06-22T09:24:11;27.50;99.90
12634;DHT22;6382;48.614;8.880;2023-06-22T09:26:38;27.60;99.90
12634;DHT22;6382;48.614;8.880;2023-06-22T09:29:05;27.70;99.90
12634;DHT22;6382;48.614;8.880;2023-06-22T09:31:32;27.70;99.90
12634;DHT22;6382;48.614;8.880;2023-06-22T09:33:59;27.70;99.90
12634;DHT22;6382;48.614;8.880;2023-06-22T09:36:26;28.80;99.90
12634;DHT22;6382;48.614;8.880;2023-06-22T09:38:52;27.80;99.90
12634;DHT22;6382;48.614;8.880;2023-06-22T09:41:21;27.80;99.90
12634;DHT22;6382;48.614;8.880;2023-06-22T09:43:48;27.90;99.90
12634;DHT22;6382;48.614;8.880;2023-06-22T09:46:15;28.00;99.90
12634;DHT22;6382;48.614;8.880;2023-06-22T09:48:42;28.20;99.90
12634;DHT22;6382;48.614;8.880;2023-06-22T09:51:09;28.20;99.90
12634;DHT22;6382;48.614;8.880;2023-06-22T09:53:35;28.30;99.90
12634;DHT22;6382;48.614;8.880;2023-06-22T09:56:03;28.30;99.90
12634;DHT22;6382;48.614;8.880;2023-06-22T09:58:30;28.30;99.90
12634;DHT22;6382;48.614;8.880;2023-06-22T10:00:57;28.40;99.90
12634;DHT22;6382;48.614;8.880;2023-06-22T10:03:23;28.60;99.90
12634;DHT22;6382;48.614;8.880;2023-06-22T10:05:50;28.60;99.90
12634;DHT22;6382;48.614;8.880;2023-06-22T10:08:17;32.40;99.90
12634;DHT22;6382;48.614;8.880;2023-06-22T10:10:44;29.00;99.90
12634;DHT22;6382;48.614;8.880;2023-06-22T10:13:11;29.10;99.90
12634;DHT22;6382;48.614;8.880;2023-06-22T10:15:38;29.20;99.90
12634;DHT22;6382;48.614;8.880;2023-06-22T10:18:05;29.20;99.90
12634;DHT22;6382;48.614;8.880;2023-06-22T10:20:32;29.10;99.90
12634;DHT22;6382;48.614;8.880;2023-06-22T10:22:59;29.20;99.90
12634;DHT22;6382;48.614;8.880;2023-06-22T10:25:26;29.30;99.90
12634;DHT22;6382;48.614;8.880;2023-06-22T10:27:53;29.50;99.90
12634;DHT22;6382;48.614;8.880;2023-06-22T10:30:20;29.50;99.90
12634;DHT22;6382;48.614;8.880;2023-06-22T10:32:46;29.70;99.90
12634;DHT22;6382;48.614;8.880;2023-06-22T10:35:13;29.80;99.90
12634;DHT22;6382;48.614;8.880;2023-06-22T10:37:45;29.90;99.90
12634;DHT22;6382;48.614;8.880;2023-06-22T10:40:13;30.00;99.90
12634;DHT22;6382;48.614;8.880;2023-06-22T10:42:40;30.20;99.90
12634;DHT22;6382;48.614;8.880;2023-06-22T10:45:07;30.30;99.90
12634;DHT22;6382;48.614;8.880;2023-06-22T10:47:34;30.50;99.90
12634;DHT22;6382;48.614;8.880;2023-06-22T10:50:02;30.50;99.90
12634;DHT22;6382;48.614;8.880;2023-06-22T10:52:28;30.60;99.90
12634;DHT22;6382;48.614;8.880;2023-06-22T10:54:55;30.70;99.90
12634;DHT22;6382;48.614;8.880;2023-06-22T10:57:22;30.60;99.90
12634;DHT22;6382;48.614;8.880;2023-06-22T10:59:49;30.70;99.90
12634;DHT22;6382;48.614;8.880;2023-06-22T11:02:16;30.60;99.90
12634;DHT22;6382;48.614;8.880;2023-06-22T11:04:42;30.70;99.90
12634;DHT22;6382;48.614;8.880;2023-06-22T11:07:09;30.70;99.90
12634;DHT22;6382;48.614;8.880;2023-06-22T11:09:36;30.70;99.90
12634;DHT22;6382;48.614;8.880;2023-06-22T11:12:05;30.60;99.90
12634;DHT22;6382;48.614;8.880;2023-06-22T11:14:32;30.50;99.90
12634;DHT22;6382;48.614;8.880;2023-06-22T11:17:00;30.30;99.90
12634;DHT22;6382;48.614;8.880;2023-06-22T11:19:27;30.50;99.90
12634;DHT22;6382;48.614;8.880;2023-06-22T11:21:53;30.50;99.90
12634;DHT22;6382;48.614;8.880;2023-06-22T11:24:20;30.70;99.90
12634;DHT22;6382;48.614;8.880;2023-06-22T11:26:47;30.80;99.90
12634;DHT22;6382;48.614;8.880;2023-06-22T11:29:14;30.90;99.90
12634;DHT22;6382;48.614;8.880;2023-06-22T11:31:57;30.90;99.90
12634;DHT22;6382;48.614;8.880;2023-06-22T11:34:24;30.90;99.90
12634;DHT22;6382;48.614;8.880;2023-06-22T11:36:51;30.80;99.90
12634;DHT22;6382;48.614;8.880;2023-06-22T11:39:18;32.30;99.90
12634;DHT22;6382;48.614;8.880;2023-06-22T11:41:55;30.80;99.90
12634;DHT22;6382;48.614;8.880;2023-06-22T11:44:22;30.90;99.90
12634;DHT22;6382;48.614;8.880;2023-06-22T11:46:48;30.80;99.90
12634;DHT22;6382;48.614;8.880;2023-06-22T11:49:15;30.70;99.90
12634;DHT22;6382;48.614;8.880;2023-06-22T11:51:42;30.60;99.90
12634;DHT22;6382;48.614;8.880;2023-06-22T11:54:08;30.50;99.90
12634;DHT22;6382;48.614;8.880;2023-06-22T11:56:35;30.30;99.90
12634;DHT22;6382;48.614;8.880;2023-06-22T11:59:02;30.30;99.90
12634;DHT22;6382;48.614;8.880;2023-06-22T12:01:28;30.10;99.90
12634;DHT22;6382;48.614;8.880;2023-06-22T12:03:55;30.00;99.90
12634;DHT22;6382;48.614;8.880;2023-06-22T12:06:22;30.00;99.90
12634;DHT22;6382;48.614;8.880;2023-06-22T12:08:49;29.90;99.90
12634;DHT22;6382;48.614;8.880;2023-06-22T12:11:15;29.90;99.90
12634;DHT22;6382;48.614;8.880;2023-06-22T12:13:42;29.90;99.90
12634;DHT22;6382;48.614;8.880;2023-06-22T12:16:09;29.90;99.90
12634;DHT22;6382;48.614;8.880;2023-06-22T12:18:36;29.70;99.90
12634;DHT22;6382;48.614;8.880;2023-06-22T12:21:02;29.70;99.90
12634;DHT22;6382;48.614;8.880;2023-06-22T12:23:29;29.50;99.90
12634;DHT22;6382;48.614;8.880;2023-06-22T12:25:56;29.40;99.90
12634;DHT22;6382;48.614;8.880;2023-06-22T12:28:23;25.60;99.90
12634;DHT22;6382;48.614;8.880;2023-06-22T12:30:50;29.40;99.90
12634;DHT22;6382;48.614;8.880;2023-06-22T12:33:17;29.50;99.90
12634;DHT22;6382;48.614;8.880;2023-06-22T12:35:44;29.60;99.90
12634;DHT22;6382;48.614;8.880;2023-06-22T12:38:11;29.60;99.90
12634;DHT22;6382;48.614;8.880;2023-06-22T12:40:38;29.60;99.90
12634;DHT22;6382;48.614;8.880;2023-06-22T12:43:05;29.60;99.90
12634;DHT22;6382;48.614;8.880;2023-06-22T12:45:31;29.40;99.90
12634;DHT22;6382;48.614;8.880;2023-06-22T12:48:00;29.20;99.90
12634;DHT22;6382;48.614;8.880;2023-06-22T12:50:27;29.00;99.90
12634;DHT22;6382;48.614;8.880;2023-06-22T12:52:54;28.90;99.90
12634;DHT22;6382;48.614;8.880;2023-06-22T12:55:21;28.80;99.90
12634;DHT22;6382;48.614;8.880;2023-06-22T12:57:48;28.70;99.90
12634;DHT22;6382;48.614;8.880;2023-06-22T13:00:14;28.80;99.90
12634;DHT22;6382;48.614;8.880;2023-06-22T13:02:41;28.80;99.90
12634;DHT22;6382;48.614;8.880;2023-06-22T13:05:09;28.80;99.90
12634;DHT22;6382;48.614;8.880;2023-06-22T13:07:36;28.80;99.90
12634;DHT22;6382;48.614;8.880;2023-06-22T13:10:02;28.90;99.90
12634;DHT22;6382;48.614;8.880;2023-06-22T13:12:29;29.00;99.90
12634;DHT22;6382;48.614;8.880;2023-06-22T13:14:56;29.10;99.90
12634;DHT22;6382;48.614;8.880;2023-06-22T13:17:23;29.10;99.90
12634;DHT22;6382;48.614;8.880;2023-06-22T13:19:50;29.30;99.90
12634;DHT22;6382;48.614;8.880;2023-06-22T13:22:26;29.30;99.90
12634;DHT22;6382;48.614;8.880;2023-06-22T13:24:56;29.40;99.90
12634;DHT22;6382;48.614;8.880;2023-06-22T13:27:23;29.50;99.90
12634;DHT22;6382;48.614;8.880;2023-06-22T13:29:50;29.60;99.90
12634;DHT22;6382;48.614;8.880;2023-06-22T13:32:17;29.60;99.90
12634;DHT22;6382;48.614;8.880;2023-06-22T13:34:44;29.80;99.90
12634;DHT22;6382;48.614;8.880;2023-06-22T13:37:10;29.90;99.90
12634;DHT22;6382;48.614;8.880;2023-06-22T13:39:37;30.00;99.90
12634;DHT22;6382;48.614;8.880;2023-06-22T13:42:04;30.00;99.90
12634;DHT22;6382;48.614;8.880;2023-06-22T13:44:31;30.00;99.90
12634;DHT22;6382;48.614;8.880;2023-06-22T13:46:57;29.80;99.90
12634;DHT22;6382;48.614;8.880;2023-06-22T13:49:24;29.90;99.90
12634;DHT22;6382;48.614;8.880;2023-06-22T13:51:51;29.80;99.90
12634;DHT22;6382;48.614;8.880;2023-06-22T13:54:17;29.90;99.90
12634;DHT22;6382;48.614;8.880;2023-06-22T13:56:47;30.00;99.90
12634;DHT22;6382;48.614;8.880;2023-06-22T13:59:14;30.00;99.90
12634;DHT22;6382;48.614;8.880;2023-06-22T14:01:40;30.20;99.90
12634;DHT22;6382;48.614;8.880;2023-06-22T14:04:08;29.10;99.90
12634;DHT22;6382;48.614;8.880;2023-06-22T14:06:35;30.50;99.90
12634;DHT22;6382;48.614;8.880;2023-06-22T14:09:02;30.60;99.90
12634;DHT22;6382;48.614;8.880;2023-06-22T14:11:29;30.80;99.90
12634;DHT22;6382;48.614;8.880;2023-06-22T14:13:55;30.70;97.80
12634;DHT22;6382;48.614;8.880;2023-06-22T14:16:22;30.80;97.60
12634;DHT22;6382;48.614;8.880;2023-06-22T14:18:49;30.80;96.50
12634;DHT22;6382;48.614;8.880;2023-06-22T14:21:15;30.80;94.70
12634;DHT22;6382;48.614;8.880;2023-06-22T14:23:42;30.80;94.50
12634;DHT22;6382;48.614;8.880;2023-06-22T14:26:15;30.70;94.50
12634;DHT22;6382;48.614;8.880;2023-06-22T14:28:47;30.70;93.50
12634;DHT22;6382;48.614;8.880;2023-06-22T14:31:16;30.80;94.10
12634;DHT22;6382;48.614;8.880;2023-06-22T14:33:45;31.00;93.20
12634;DHT22;6382;48.614;8.880;2023-06-22T14:36:11;31.00;92.70
12634;DHT22;6382;48.614;8.880;2023-06-22T14:38:41;31.10;92.00
12634;DHT22;6382;48.614;8.880;2023-06-22T14:41:07;30.90;92.20
12634;DHT22;6382;48.614;8.880;2023-06-22T14:43:37;30.90;93.30
12634;DHT22;6382;48.614;8.880;2023-06-22T14:46:04;30.80;91.60
12634;DHT22;6382;48.614;8.880;2023-06-22T14:48:31;30.90;92.60
12634;DHT22;6382;48.614;8.880;2023-06-22T14:50:57;30.90;91.80
12634;DHT22;6382;48.614;8.880;2023-06-22T14:53:24;30.70;93.00
12634;DHT22;6382;48.614;8.880;2023-06-22T14:55:51;30.60;91.60
12634;DHT22;6382;48.614;8.880;2023-06-22T14:58:17;30.50;91.60
12634;DHT22;6382;48.614;8.880;2023-06-22T15:00:44;30.40;91.10
12634;DHT22;6382;48.614;8.880;2023-06-22T15:03:11;30.40;91.30
12634;DHT22;6382;48.614;8.880;2023-06-22T15:05:45;30.30;91.70
12634;DHT22;6382;48.614;8.880;2023-06-22T15:08:12;30.40;92.60
12634;DHT22;6382;48.614;8.880;2023-06-22T15:10:39;30.50;91.50
12634;DHT22;6382;48.614;8.880;2023-06-22T15:13:05;30.50;90.90
12634;DHT22;6382;48.614;8.880;2023-06-22T15:15:32;30.50;90.90
12634;DHT22;6382;48.614;8.880;2023-06-22T15:18:00;30.50;90.30
12634;DHT22;6382;48.614;8.880;2023-06-22T15:20:27;30.40;91.30
12634;DHT22;6382;48.614;8.880;2023-06-22T15:22:54;30.20;90.90
12634;DHT22;6382;48.614;8.880;2023-06-22T15:25:21;30.00;91.90
12634;DHT22;6382;48.614;8.880;2023-06-22T15:27:47;29.90;92.30
12634;DHT22;6382;48.614;8.880;2023-06-22T15:30:14;29.80;92.30
12634;DHT22;6382;48.614;8.880;2023-06-22T15:32:44;29.70;92.20
12634;DHT22;6382;48.614;8.880;2023-06-22T15:35:11;29.60;92.10
12634;DHT22;6382;48.614;8.880;2023-06-22T15:37:38;29.60;92.20
12634;DHT22;6382;48.614;8.880;2023-06-22T15:40:05;29.60;92.90
12634;DHT22;6382;48.614;8.880;2023-06-22T15:42:32;29.50;93.00
12634;DHT22;6382;48.614;8.880;2023-06-22T15:44:59;29.50;92.90
12634;DHT22;6382;48.614;8.880;2023-06-22T15:47:25;29.40;92.70
12634;DHT22;6382;48.614;8.880;2023-06-22T15:49:52;29.40;92.50
12634;DHT22;6382;48.614;8.880;2023-06-22T15:52:19;29.40;92.90
12634;DHT22;6382;48.614;8.880;2023-06-22T15:54:46;29.30;93.20
12634;DHT22;6382;48.614;8.880;2023-06-22T15:57:12;29.10;92.90
12634;DHT22;6382;48.614;8.880;2023-06-22T15:59:40;29.00;93.50
12634;DHT22;6382;48.614;8.880;2023-06-22T16:02:07;29.00;93.40
12634;DHT22;6382;48.614;8.880;2023-06-22T16:04:34;28.80;94.30
12634;DHT22;6382;48.614;8.880;2023-06-22T16:07:01;28.70;93.70
12634;DHT22;6382;48.614;8.880;2023-06-22T16:09:28;28.60;94.20
12634;DHT22;6382;48.614;8.880;2023-06-22T16:11:56;28.50;94.40
12634;DHT22;6382;48.614;8.880;2023-06-22T16:14:22;28.40;94.20
12634;DHT22;6382;48.614;8.880;2023-06-22T16:16:49;28.50;94.30
12634;DHT22;6382;48.614;8.880;2023-06-22T16:19:16;28.50;94.70
12634;DHT22;6382;48.614;8.880;2023-06-22T16:21:43;28.50;95.00
12634;DHT22;6382;48.614;8.880;2023-06-22T16:24:09;28.60;96.40
12634;DHT22;6382;48.614;8.880;2023-06-22T16:26:40;28.60;95.60
12634;DHT22;6382;48.614;8.880;2023-06-22T16:29:07;28.70;94.30
12634;DHT22;6382;48.614;8.880;2023-06-22T16:31:34;28.70;95.00
12634;DHT22;6382;48.614;8.880;2023-06-22T16:34:01;28.80;94.90
12634;DHT22;6382;48.614;8.880;2023-06-22T16:36:28;28.80;95.10
12634;DHT22;6382;48.614;8.880;2023-06-22T16:38:55;28.90;95.80
12634;DHT22;6382;48.614;8.880;2023-06-22T16:41:22;28.80;93.90
12634;DHT22;6382;48.614;8.880;2023-06-22T16:43:49;28.80;93.70
12634;DHT22;6382;48.614;8.880;2023-06-22T16:46:15;28.70;95.40
12634;DHT22;6382;48.614;8.880;2023-06-22T16:48:49;28.60;94.10
12634;DHT22;6382;48.614;8.880;2023-06-22T16:51:18;28.50;94.90
12634;DHT22;6382;48.614;8.880;2023-06-22T16:53:44;28.30;94.60
12634;DHT22;6382;48.614;8.880;2023-06-22T16:56:12;28.10;95.40
12634;DHT22;6382;48.614;8.880;2023-06-22T16:58:39;28.00;94.20
12634;DHT22;6382;48.614;8.880;2023-06-22T17:01:10;27.80;94.50
12634;DHT22;6382;48.614;8.880;2023-06-22T17:03:39;27.70;94.80
12634;DHT22;6382;48.614;8.880;2023-06-22T17:06:09;27.50;94.50
12634;DHT22;6382;48.614;8.880;2023-06-22T17:08:38;27.30;95.30
12634;DHT22;6382;48.614;8.880;2023-06-22T17:11:05;27.20;95.10
12634;DHT22;6382;48.614;8.880;2023-06-22T17:13:37;27.10;94.90
12634;DHT22;6382;48.614;8.880;2023-06-22T17:16:04;26.90;95.60
12634;DHT22;6382;48.614;8.880;2023-06-22T17:18:31;26.80;95.40
12634;DHT22;6382;48.614;8.880;2023-06-22T17:20:59;26.60;95.50
12634;DHT22;6382;48.614;8.880;2023-06-22T17:23:27;26.60;94.70
12634;DHT22;6382;48.614;8.880;2023-06-22T17:25:54;26.50;95.10
12634;DHT22;6382;48.614;8.880;2023-06-22T17:28:21;26.30;95.40
12634;DHT22;6382;48.614;8.880;2023-06-22T17:31:07;26.10;95.70
12634;DHT22;6382;48.614;8.880;2023-06-22T17:33:34;26.00;97.00
12634;DHT22;6382;48.614;8.880;2023-06-22T17:36:01;25.70;98.00
12634;DHT22;6382;48.614;8.880;2023-06-22T17:38:28;25.60;97.30
12634;DHT22;6382;48.614;8.880;2023-06-22T17:41:01;25.40;97.60
12634;DHT22;6382;48.614;8.880;2023-06-22T17:43:44;25.30;97.80
12634;DHT22;6382;48.614;8.880;2023-06-22T17:46:12;25.20;98.10
12634;DHT22;6382;48.614;8.880;2023-06-22T17:48:42;25.00;98.50
12634;DHT22;6382;48.614;8.880;2023-06-22T17:51:09;24.90;99.10
12634;DHT22;6382;48.614;8.880;2023-06-22T17:53:36;24.80;99.70
12634;DHT22;6382;48.614;8.880;2023-06-22T17:56:02;24.60;99.90
12634;DHT22;6382;48.614;8.880;2023-06-22T17:58:29;24.50;99.90
12634;DHT22;6382;48.614;8.880;2023-06-22T18:00:56;24.40;99.90
12634;DHT22;6382;48.614;8.880;2023-06-22T18:03:24;25.50;99.90
12634;DHT22;6382;48.614;8.880;2023-06-22T18:05:53;24.10;99.90
12634;DHT22;6382;48.614;8.880;2023-06-22T18:08:22;23.90;99.90
12634;DHT22;6382;48.614;8.880;2023-06-22T18:10:51;23.80;99.90
12634;DHT22;6382;48.614;8.880;2023-06-22T18:13:19;23.40;99.90
12634;DHT22;6382;48.614;8.880;2023-06-22T18:15:46;23.20;99.90
12634;DHT22;6382;48.614;8.880;2023-06-22T18:18:13;23.10;99.90
12634;DHT22;6382;48.614;8.880;2023-06-22T18:20:40;22.90;99.90
12634;DHT22;6382;48.614;8.880;2023-06-22T18:23:08;22.60;99.90
12634;DHT22;6382;48.614;8.880;2023-06-22T18:25:35;22.40;99.90
12634;DHT22;6382;48.614;8.880;2023-06-22T18:28:04;22.20;99.90
12634;DHT22;6382;48.614;8.880;2023-06-22T18:30:31;21.90;99.90
12634;DHT22;6382;48.614;8.880;2023-06-22T18:32:58;21.90;99.90
12634;DHT22;6382;48.614;8.880;2023-06-22T18:35:25;21.70;99.90
12634;DHT22;6382;48.614;8.880;2023-06-22T18:37:51;21.60;99.90
12634;DHT22;6382;48.614;8.880;2023-06-22T18:40:18;21.50;99.90
12634;DHT22;6382;48.614;8.880;2023-06-22T18:42:46;21.60;99.90
12634;DHT22;6382;48.614;8.880;2023-06-22T18:45:21;21.40;99.90
12634;DHT22;6382;48.614;8.880;2023-06-22T18:47:54;21.40;99.90
12634;DHT22;6382;48.614;8.880;2023-06-22T18:50:55;21.40;99.90
12634;DHT22;6382;48.614;8.880;2023-06-22T18:53:16;21.30;99.90
12634;DHT22;6382;48.614;8.880;2023-06-22T18:55:44;21.80;99.90
12634;DHT22;6382;48.614;8.880;2023-06-22T18:58:14;21.20;99.90
12634;DHT22;6382;48.614;8.880;2023-06-22T19:00:42;21.00;99.90
12634;DHT22;6382;48.614;8.880;2023-06-22T19:03:08;20.90;99.90
12634;DHT22;6382;48.614;8.880;2023-06-22T19:05:42;20.80;99.90
12634;DHT22;6382;48.614;8.880;2023-06-22T19:08:09;20.80;99.90
12634;DHT22;6382;48.614;8.880;2023-06-22T19:10:40;20.70;99.90
12634;DHT22;6382;48.614;8.880;2023-06-22T19:15:42;20.60;99.90
12634;DHT22;6382;48.614;8.880;2023-06-22T19:18:19;20.80;99.90
12634;DHT22;6382;48.614;8.880;2023-06-22T19:20:46;20.60;99.90
12634;DHT22;6382;48.614;8.880;2023-06-22T19:23:29;20.50;99.90
12634;DHT22;6382;48.614;8.880;2023-06-22T19:25:57;20.60;99.90
12634;DHT22;6382;48.614;8.880;2023-06-22T19:28:25;20.60;99.90
12634;DHT22;6382;48.614;8.880;2023-06-22T19:30:55;20.60;99.90
12634;DHT22;6382;48.614;8.880;2023-06-22T19:33:22;17.50;99.90
12634;DHT22;6382;48.614;8.880;2023-06-22T19:35:49;20.60;99.90
12634;DHT22;6382;48.614;8.880;2023-06-22T19:38:19;20.50;99.90
12634;DHT22;6382;48.614;8.880;2023-06-22T19:40:46;20.50;99.90
12634;DHT22;6382;48.614;8.880;2023-06-22T19:43:13;20.50;99.90
12634;DHT22;6382;48.614;8.880;2023-06-22T19:45:43;20.40;99.90
12634;DHT22;6382;48.614;8.880;2023-06-22T19:48:13;20.40;99.90
12634;DHT22;6382;48.614;8.880;2023-06-22T19:50:40;20.30;99.90
12634;DHT22;6382;48.614;8.880;2023-06-22T19:53:12;20.30;99.90
12634;DHT22;6382;48.614;8.880;2023-06-22T19:55:41;20.20;99.90
12634;DHT22;6382;48.614;8.880;2023-06-22T19:58:12;20.20;99.90
12634;DHT22;6382;48.614;8.880;2023-06-22T20:00:39;20.40;99.90
12634;DHT22;6382;48.614;8.880;2023-06-22T20:03:09;20.20;99.90
12634;DHT22;6382;48.614;8.880;2023-06-22T20:05:43;20.30;99.90
12634;DHT22;6382;48.614;8.880;2023-06-22T20:08:10;20.40;99.90
12634;DHT22;6382;48.614;8.880;2023-06-22T20:10:38;20.70;99.90
12634;DHT22;6382;48.614;8.880;2023-06-22T20:13:20;20.50;99.90
12634;DHT22;6382;48.614;8.880;2023-06-22T20:15:47;20.50;99.90
12634;DHT22;6382;48.614;8.880;2023-06-22T20:18:14;20.60;99.90
12634;DHT22;6382;48.614;8.880;2023-06-22T20:20:46;20.60;99.90
12634;DHT22;6382;48.614;8.880;2023-06-22T20:23:20;20.60;99.90
12634;DHT22;6382;48.614;8.880;2023-06-22T20:25:49;20.60;99.90
12634;DHT22;6382;48.614;8.880;2023-06-22T20:28:17;20.50;99.90
12634;DHT22;6382;48.614;8.880;2023-06-22T20:31:00;20.60;99.90
12634;DHT22;6382;48.614;8.880;2023-06-22T20:33:27;20.50;99.90
12634;DHT22;6382;48.614;8.880;2023-06-22T20:35:54;20.50;99.90
12634;DHT22;6382;48.614;8.880;2023-06-22T20:38:21;20.40;99.90
12634;DHT22;6382;48.614;8.880;2023-06-22T20:40:52;20.50;99.90
12634;DHT22;6382;48.614;8.880;2023-06-22T20:43:19;20.70;99.90
12634;DHT22;6382;48.614;8.880;2023-06-22T20:45:48;20.40;99.90
12634;DHT22;6382;48.614;8.880;2023-06-22T20:48:14;20.30;99.90
12634;DHT22;6382;48.614;8.880;2023-06-22T20:50:58;20.30;99.90
12634;DHT22;6382;48.614;8.880;2023-06-22T20:53:25;20.20;99.90
12634;DHT22;6382;48.614;8.880;2023-06-22T20:55:52;20.30;99.90
12634;DHT22;6382;48.614;8.880;2023-06-22T20:58:18;20.20;99.90
12634;DHT22;6382;48.614;8.880;2023-06-22T21:00:45;20.20;99.90
12634;DHT22;6382;48.614;8.880;2023-06-22T21:03:12;20.10;99.90
12634;DHT22;6382;48.614;8.880;2023-06-22T21:05:39;20.20;99.90
12634;DHT22;6382;48.614;8.880;2023-06-22T21:08:06;20.10;99.90
12634;DHT22;6382;48.614;8.880;2023-06-22T21:10:33;20.10;99.90
12634;DHT22;6382;48.614;8.880;2023-06-22T21:13:00;20.20;99.90
12634;DHT22;6382;48.614;8.880;2023-06-22T21:15:27;20.20;99.90
12634;DHT22;6382;48.614;8.880;2023-06-22T21:17:53;20.10;99.90
12634;DHT22;6382;48.614;8.880;2023-06-22T21:20:20;20.10;99.90
12634;DHT22;6382;48.614;8.880;2023-06-22T21:22:47;20.10;99.90
12634;DHT22;6382;48.614;8.880;2023-06-22T21:25:14;20.00;99.90
12634;DHT22;6382;48.614;8.880;2023-06-22T21:27:42;20.00;99.90
12634;DHT22;6382;48.614;8.880;2023-06-22T21:30:10;20.00;99.90
12634;DHT22;6382;48.614;8.880;2023-06-22T21:32:39;20.00;99.90
12634;DHT22;6382;48.614;8.880;2023-06-22T21:35:06;20.00;99.90
12634;DHT22;6382;48.614;8.880;2023-06-22T21:37:34;19.90;99.90
12634;DHT22;6382;48.614;8.880;2023-06-22T21:40:00;19.90;99.90
12634;DHT22;6382;48.614;8.880;2023-06-22T21:42:27;20.50;99.90
12634;DHT22;6382;48.614;8.880;2023-06-22T21:44:55;19.80;99.90
12634;DHT22;6382;48.614;8.880;2023-06-22T21:47:21;19.80;99.90
12634;DHT22;6382;48.614;8.880;2023-06-22T21:49:49;19.70;99.90
12634;DHT22;6382;48.614;8.880;2023-06-22T21:52:15;19.80;99.90
12634;DHT22;6382;48.614;8.880;2023-06-22T21:54:42;19.80;99.90
12634;DHT22;6382;48.614;8.880;2023-06-22T21:57:09;19.70;99.90
12634;DHT22;6382;48.614;8.880;2023-06-22T21:59:36;19.90;99.90
12634;DHT22;6382;48.614;8.880;2023-06-22T22:02:02;20.70;99.90
12634;DHT22;6382;48.614;8.880;2023-06-22T22:04:29;19.60;99.90
12634;DHT22;6382;48.614;8.880;2023-06-22T22:06:56;20.70;99.90
12634;DHT22;6382;48.614;8.880;2023-06-22T22:09:23;20.70;99.90
12634;DHT22;6382;48.614;8.880;2023-06-22T22:11:49;19.90;99.90
12634;DHT22;6382;48.614;8.880;2023-06-22T22:14:16;19.60;99.90
12634;DHT22;6382;48.614;8.880;2023-06-22T22:16:44;19.40;99.90
12634;DHT22;6382;48.614;8.880;2023-06-22T22:19:12;19.40;99.90
12634;DHT22;6382;48.614;8.880;2023-06-22T22:21:41;20.40;99.90
12634;DHT22;6382;48.614;8.880;2023-06-22T22:24:09;19.30;99.90
12634;DHT22;6382;48.614;8.880;2023-06-22T22:26:35;19.30;99.90
12634;DHT22;6382;48.614;8.880;2023-06-22T22:29:03;19.30;99.90
12634;DHT22;6382;48.614;8.880;2023-06-22T22:31:30;19.30;99.90
12634;DHT22;6382;48.614;8.880;2023-06-22T22:34:04;19.30;99.90
12634;DHT22;6382;48.614;8.880;2023-06-22T22:36:30;20.30;99.90
12634;DHT22;6382;48.614;8.880;2023-06-22T22:38:57;21.30;99.90
12634;DHT22;6382;48.614;8.880;2023-06-22T22:41:24;21.00;99.90
12634;DHT22;6382;48.614;8.880;2023-06-22T22:43:50;20.40;99.90
12634;DHT22;6382;48.614;8.880;2023-06-22T22:46:17;19.30;99.90
12634;DHT22;6382;48.614;8.880;2023-06-22T22:48:44;19.20;99.90
12634;DHT22;6382;48.614;8.880;2023-06-22T22:51:11;19.30;99.90
12634;DHT22;6382;48.614;8.880;2023-06-22T22:53:37;19.30;99.90
12634;DHT22;6382;48.614;8.880;2023-06-22T22:56:04;19.30;99.90
12634;DHT22;6382;48.614;8.880;2023-06-22T22:58:31;19.30;99.90
12634;DHT22;6382;48.614;8.880;2023-06-22T23:00:58;19.30;99.90
12634;DHT22;6382;48.614;8.880;2023-06-22T23:03:26;19.40;99.90
12634;DHT22;6382;48.614;8.880;2023-06-22T23:05:52;19.40;99.90
12634;DHT22;6382;48.614;8.880;2023-06-22T23:08:19;19.40;99.90
12634;DHT22;6382;48.614;8.880;2023-06-22T23:10:47;20.80;99.90
12634;DHT22;6382;48.614;8.880;2023-06-22T23:13:14;19.40;99.90
12634;DHT22;6382;48.614;8.880;2023-06-22T23:15:40;20.60;99.90
12634;DHT22;6382;48.614;8.880;2023-06-22T23:18:07;19.40;99.90
12634;DHT22;6382;48.614;8.880;2023-06-22T23:20:35;19.50;99.90
12634;DHT22;6382;48.614;8.880;2023-06-22T23:23:02;19.50;99.90
12634;DHT22;6382;48.614;8.880;2023-06-22T23:25:29;20.60;99.90
12634;DHT22;6382;48.614;8.880;2023-06-22T23:27:57;19.90;99.90
12634;DHT22;6382;48.614;8.880;2023-06-22T23:30:23;19.50;99.90
12634;DHT22;6382;48.614;8.880;2023-06-22T23:32:53;19.60;99.90
12634;DHT22;6382;48.614;8.880;2023-06-22T23:35:19;19.60;99.90
12634;DHT22;6382;48.614;8.880;2023-06-22T23:37:46;19.80;99.90
12634;DHT22;6382;48.614;8.880;2023-06-22T23:40:13;19.60;99.90
12634;DHT22;6382;48.614;8.880;2023-06-22T23:42:44;19.60;99.90
12634;DHT22;6382;48.614;8.880;2023-06-22T23:45:14;19.50;99.90
12634;DHT22;6382;48.614;8.880;2023-06-22T23:47:44;20.60;99.90
12634;DHT22;6382;48.614;8.880;2023-06-22T23:50:11;19.30;99.90
12634;DHT22;6382;48.614;8.880;2023-06-22T23:52:39;19.20;99.90